sensor_id;sensor_type;location;lat;lon;timestamp;pressure;altitude;pressure_sealevel;temperature;humidity
28312;BME280;15572;48.810;9.148;2023-02-01T00:01:18;98819.72;;;3.37;100.00
28312;BME280;15572;48.810;9.148;2023-02-01T00:06:14;98809.75;;;3.39;100.00
28312;BME280;15572;48.810;9.148;2023-02-01T00:11:11;98803.84;;;3.46;100.00
28312;BME280;15572;48.810;9.148;2023-02-01T00:16:09;98794.84;;;3.47;100.00
28312;BME280;15572;48.810;9.148;2023-02-01T00:21:09;98797.66;;;3.45;100.00
28312;BME280;15572;48.810;9.148;2023-02-01T00:26:07;98803.31;;;3.52;100.00
28312;BME280;15572;48.810;9.148;2023-02-01T00:31:07;98795.84;;;3.55;100.00
28312;BME280;15572;48.810;9.148;2023-02-01T00:36:05;98785.00;;;3.57;100.00
28312;BME280;15572;48.810;9.148;2023-02-01T00:41:05;98793.28;;;3.63;100.00
28312;BME280;15572;48.810;9.148;2023-02-01T00:46:02;98798.22;;;3.58;100.00
28312;BME280;15572;48.810;9.148;2023-02-01T00:50:59;98793.44;;;3.62;100.00
28312;BME280;15572;48.810;9.148;2023-02-01T00:55:55;98784.44;;;3.63;100.00
28312;BME280;15572;48.810;9.148;2023-02-01T01:01:02;98777.09;;;3.65;100.00
28312;BME280;15572;48.810;9.148;2023-02-01T01:06:00;98769.06;;;3.65;100.00
28312;BME280;15572;48.810;9.148;2023-02-01T01:10:57;98770.91;;;3.64;100.00
28312;BME280;15572;48.810;9.148;2023-02-01T01:15:54;98760.91;;;3.66;100.00
28312;BME280;15572;48.810;9.148;2023-02-01T01:20:52;98758.22;;;3.66;100.00
28312;BME280;15572;48.810;9.148;2023-02-01T01:25:48;98759.75;;;3.69;100.00
28312;BME280;15572;48.810;9.148;2023-02-01T01:30:45;98760.78;;;3.68;100.00
28312;BME280;15572;48.810;9.148;2023-02-01T01:35:41;98763.88;;;3.73;100.00
28312;BME280;15572;48.810;9.148;2023-02-01T01:40:39;98759.38;;;3.73;100.00
28312;BME280;15572;48.810;9.148;2023-02-01T01:45:35;98755.13;;;3.71;100.00
28312;BME280;15572;48.810;9.148;2023-02-01T01:50:35;98758.78;;;3.70;100.00
28312;BME280;15572;48.810;9.148;2023-02-01T01:55:39;98755.13;;;3.71;100.00
28312;BME280;15572;48.810;9.148;2023-02-01T02:00:37;98753.28;;;3.71;100.00
28312;BME280;15572;48.810;9.148;2023-02-01T02:05:34;98737.94;;;3.73;100.00
28312;BME280;15572;48.810;9.148;2023-02-01T02:10:31;98743.97;;;3.75;100.00
28312;BME280;15572;48.810;9.148;2023-02-01T02:15:47;98748.34;;;3.76;100.00
28312;BME280;15572;48.810;9.148;2023-02-01T02:21:10;98735.81;;;3.77;100.00
28312;BME280;15572;48.810;9.148;2023-02-01T02:26:22;98734.13;;;3.76;100.00
28312;BME280;15572;48.810;9.148;2023-02-01T02:31:37;98729.75;;;3.75;100.00
28312;BME280;15572;48.810;9.148;2023-02-01T02:36:45;98730.72;;;3.74;100.00
28312;BME280;15572;48.810;9.148;2023-02-01T02:41:51;98724.38;;;3.75;100.00
28312;BME280;15572;48.810;9.148;2023-02-01T02:47:14;98727.78;;;3.77;100.00
28312;BME280;15572;48.810;9.148;2023-02-01T02:52:23;98723.69;;;3.73;100.00
28312;BME280;15572;48.810;9.148;2023-02-01T02:57:40;98708.88;;;3.69;100.00
28312;BME280;15572;48.810;9.148;2023-02-01T03:02:56;98710.72;;;3.68;100.00
28312;BME280;15572;48.810;9.148;2023-02-01T03:08:13;98712.69;;;3.66;100.00
28312;BME280;15572;48.810;9.148;2023-02-01T03:13:13;98708.31;;;3.65;100.00
28312;BME280;15572;48.810;9.148;2023-02-01T03:18:14;98715.38;;;3.66;100.00
28312;BME280;15572;48.810;9.148;2023-02-01T03:23:18;98694.81;;;3.67;100.00
28312;BME280;15572;48.810;9.148;2023-02-01T03:28:17;98685.91;;;3.66;100.00
28312;BME280;15572;48.810;9.148;2023-02-01T03:33:19;98667.31;;;3.65;100.00
28312;BME280;15572;48.810;9.148;2023-02-01T03:38:23;98664.06;;;3.61;100.00
28312;BME280;15572;48.810;9.148;2023-02-01T03:43:21;98660.66;;;3.69;100.00
28312;BME280;15572;48.810;9.148;2023-02-01T03:48:20;98662.66;;;3.67;100.00
28312;BME280;15572;48.810;9.148;2023-02-01T03:53:22;98673.09;;;3.70;100.00
28312;BME280;15572;48.810;9.148;2023-02-01T03:58:21;98666.19;;;3.77;100.00
28312;BME280;15572;48.810;9.148;2023-02-01T04:03:18;98658.28;;;3.75;100.00
28312;BME280;15572;48.810;9.148;2023-02-01T04:08:14;98665.19;;;3.78;100.00
28312;BME280;15572;48.810;9.148;2023-02-01T04:13:12;98664.34;;;3.77;100.00
28312;BME280;15572;48.810;9.148;2023-02-01T04:18:09;98676.19;;;3.85;100.00
28312;BME280;15572;48.810;9.148;2023-02-01T04:23:05;98691.25;;;3.86;100.00
28312;BME280;15572;48.810;9.148;2023-02-01T04:28:02;98695.91;;;3.93;100.00
28312;BME280;15572;48.810;9.148;2023-02-01T04:33:01;98681.81;;;3.91;100.00
28312;BME280;15572;48.810;9.148;2023-02-01T04:37:58;98690.00;;;3.90;100.00
28312;BME280;15572;48.810;9.148;2023-02-01T04:42:55;98682.38;;;3.95;100.00
28312;BME280;15572;48.810;9.148;2023-02-01T04:47:51;98688.41;;;4.06;100.00
28312;BME280;15572;48.810;9.148;2023-02-01T04:52:49;98688.69;;;4.13;100.00
28312;BME280;15572;48.810;9.148;2023-02-01T04:57:46;98655.41;;;4.15;100.00
28312;BME280;15572;48.810;9.148;2023-02-01T05:02:42;98654.09;;;4.19;100.00
28312;BME280;15572;48.810;9.148;2023-02-01T05:07:39;98670.47;;;4.26;100.00
28312;BME280;15572;48.810;9.148;2023-02-01T05:12:36;98674.63;;;4.38;100.00
28312;BME280;15572;48.810;9.148;2023-02-01T05:17:50;98683.44;;;4.31;100.00
28312;BME280;15572;48.810;9.148;2023-02-01T05:22:47;98675.66;;;4.37;100.00
28312;BME280;15572;48.810;9.148;2023-02-01T05:27:45;98670.84;;;4.41;100.00
28312;BME280;15572;48.810;9.148;2023-02-01T05:32:41;98676.63;;;4.36;100.00
28312;BME280;15572;48.810;9.148;2023-02-01T05:37:38;98673.66;;;4.39;100.00
28312;BME280;15572;48.810;9.148;2023-02-01T05:42:34;98677.59;;;4.45;100.00
28312;BME280;15572;48.810;9.148;2023-02-01T05:47:32;98688.31;;;4.45;100.00
28312;BME280;15572;48.810;9.148;2023-02-01T05:52:28;98680.00;;;4.38;100.00
28312;BME280;15572;48.810;9.148;2023-02-01T05:57:25;98688.91;;;4.29;100.00
28312;BME280;15572;48.810;9.148;2023-02-01T06:02:21;98680.91;;;4.19;100.00
28312;BME280;15572;48.810;9.148;2023-02-01T06:07:20;98676.66;;;4.27;100.00
28312;BME280;15572;48.810;9.148;2023-02-01T06:12:17;98661.44;;;4.17;100.00
28312;BME280;15572;48.810;9.148;2023-02-01T06:17:13;98668.91;;;4.23;100.00
28312;BME280;15572;48.810;9.148;2023-02-01T06:22:10;98670.72;;;4.33;100.00
28312;BME280;15572;48.810;9.148;2023-02-01T06:27:07;98666.63;;;4.29;100.00
28312;BME280;15572;48.810;9.148;2023-02-01T06:32:04;98688.25;;;4.27;100.00
28312;BME280;15572;48.810;9.148;2023-02-01T06:37:01;98674.09;;;4.35;100.00
28312;BME280;15572;48.810;9.148;2023-02-01T06:41:57;98685.34;;;4.38;100.00
28312;BME280;15572;48.810;9.148;2023-02-01T06:46:55;98693.66;;;4.45;100.00
28312;BME280;15572;48.810;9.148;2023-02-01T06:51:51;98667.03;;;4.71;100.00
28312;BME280;15572;48.810;9.148;2023-02-01T06:56:48;98679.66;;;4.88;100.00
28312;BME280;15572;48.810;9.148;2023-02-01T07:01:44;98694.97;;;5.05;100.00
28312;BME280;15572;48.810;9.148;2023-02-01T07:06:42;98703.47;;;5.00;100.00
28312;BME280;15572;48.810;9.148;2023-02-01T07:11:39;98714.59;;;5.05;100.00
28312;BME280;15572;48.810;9.148;2023-02-01T07:16:38;98718.22;;;5.14;100.00
28312;BME280;15572;48.810;9.148;2023-02-01T07:21:34;98729.66;;;5.16;100.00
28312;BME280;15572;48.810;9.148;2023-02-01T07:26:32;98732.75;;;5.21;100.00
28312;BME280;15572;48.810;9.148;2023-02-01T07:31:29;98725.81;;;5.19;100.00
28312;BME280;15572;48.810;9.148;2023-02-01T07:36:25;98733.66;;;5.12;100.00
28312;BME280;15572;48.810;9.148;2023-02-01T07:41:22;98737.56;;;5.18;100.00
28312;BME280;15572;48.810;9.148;2023-02-01T07:46:20;98736.28;;;5.22;100.00
28312;BME280;15572;48.810;9.148;2023-02-01T07:51:16;98729.06;;;5.40;99.07
28312;BME280;15572;48.810;9.148;2023-02-01T07:56:15;98724.09;;;5.45;98.63
28312;BME280;15572;48.810;9.148;2023-02-01T08:01:14;98729.78;;;5.42;98.93
28312;BME280;15572;48.810;9.148;2023-02-01T08:06:21;98722.25;;;5.45;97.52
28312;BME280;15572;48.810;9.148;2023-02-01T08:11:19;98714.59;;;5.50;96.53
28312;BME280;15572;48.810;9.148;2023-02-01T08:16:17;98706.25;;;5.54;95.96
28312;BME280;15572;48.810;9.148;2023-02-01T08:21:16;98694.91;;;5.60;95.09
28312;BME280;15572;48.810;9.148;2023-02-01T08:26:15;98701.69;;;5.72;93.59
28312;BME280;15572;48.810;9.148;2023-02-01T08:31:15;98711.00;;;5.77;93.07
28312;BME280;15572;48.810;9.148;2023-02-01T08:36:11;98722.56;;;5.87;91.57
28312;BME280;15572;48.810;9.148;2023-02-01T08:41:09;98734.06;;;5.98;90.13
28312;BME280;15572;48.810;9.148;2023-02-01T08:46:09;98737.16;;;6.03;89.04
28312;BME280;15572;48.810;9.148;2023-02-01T08:51:08;98741.34;;;6.05;87.93
28312;BME280;15572;48.810;9.148;2023-02-01T08:56:05;98743.66;;;6.00;88.40
28312;BME280;15572;48.810;9.148;2023-02-01T09:01:03;98747.53;;;5.98;88.42
28312;BME280;15572;48.810;9.148;2023-02-01T09:06:01;98753.78;;;5.88;88.91
28312;BME280;15572;48.810;9.148;2023-02-01T09:10:59;98765.81;;;5.84;89.46
28312;BME280;15572;48.810;9.148;2023-02-01T09:15:56;98777.56;;;5.83;90.15
28312;BME280;15572;48.810;9.148;2023-02-01T09:20:54;98782.06;;;5.93;90.71
28312;BME280;15572;48.810;9.148;2023-02-01T09:25:52;98776.00;;;5.90;91.83
28312;BME280;15572;48.810;9.148;2023-02-01T09:30:49;98790.53;;;5.98;90.74
28312;BME280;15572;48.810;9.148;2023-02-01T09:35:45;98791.66;;;5.95;90.42
28312;BME280;15572;48.810;9.148;2023-02-01T09:40:44;98785.22;;;6.06;87.49
28312;BME280;15572;48.810;9.148;2023-02-01T09:45:51;98783.13;;;6.17;85.96
28312;BME280;15572;48.810;9.148;2023-02-01T09:50:53;98791.66;;;6.13;86.63
28312;BME280;15572;48.810;9.148;2023-02-01T09:55:54;98809.94;;;6.09;87.10
28312;BME280;15572;48.810;9.148;2023-02-01T10:00:55;98807.66;;;6.14;84.66
28312;BME280;15572;48.810;9.148;2023-02-01T10:06:10;98799.72;;;6.13;84.42
28312;BME280;15572;48.810;9.148;2023-02-01T10:11:21;98805.72;;;6.07;84.60
28312;BME280;15572;48.810;9.148;2023-02-01T10:16:29;98806.94;;;6.12;85.18
28312;BME280;15572;48.810;9.148;2023-02-01T10:21:51;98817.53;;;6.31;82.11
28312;BME280;15572;48.810;9.148;2023-02-01T10:26:51;98812.53;;;6.37;80.66
28312;BME280;15572;48.810;9.148;2023-02-01T10:31:52;98812.25;;;6.40;80.46
28312;BME280;15572;48.810;9.148;2023-02-01T10:36:54;98821.44;;;6.37;78.88
28312;BME280;15572;48.810;9.148;2023-02-01T10:41:51;98826.16;;;6.35;78.95
28312;BME280;15572;48.810;9.148;2023-02-01T10:46:48;98819.09;;;6.34;79.09
28312;BME280;15572;48.810;9.148;2023-02-01T10:51:51;98825.50;;;6.41;77.88
28312;BME280;15572;48.810;9.148;2023-02-01T10:56:49;98824.31;;;6.36;77.63
28312;BME280;15572;48.810;9.148;2023-02-01T11:01:48;98812.00;;;6.33;78.10
28312;BME280;15572;48.810;9.148;2023-02-01T11:06:47;98805.03;;;6.22;78.99
28312;BME280;15572;48.810;9.148;2023-02-01T11:11:57;98804.03;;;6.23;78.85
28312;BME280;15572;48.810;9.148;2023-02-01T11:16:57;98809.56;;;6.22;76.81
28312;BME280;15572;48.810;9.148;2023-02-01T11:22:00;98804.78;;;6.16;77.16
28312;BME280;15572;48.810;9.148;2023-02-01T11:26:58;98804.13;;;6.14;76.81
28312;BME280;15572;48.810;9.148;2023-02-01T11:31:56;98793.88;;;6.17;75.49
28312;BME280;15572;48.810;9.148;2023-02-01T11:36:57;98778.84;;;6.24;74.70
28312;BME280;15572;48.810;9.148;2023-02-01T11:41:58;98757.75;;;6.20;72.94
28312;BME280;15572;48.810;9.148;2023-02-01T11:47:18;98740.25;;;6.16;73.21
28312;BME280;15572;48.810;9.148;2023-02-01T11:52:20;98739.34;;;6.25;72.43
28312;BME280;15572;48.810;9.148;2023-02-01T11:57:36;98733.81;;;6.52;70.46
28312;BME280;15572;48.810;9.148;2023-02-01T12:02:55;98716.16;;;6.50;69.81
28312;BME280;15572;48.810;9.148;2023-02-01T12:08:25;98739.53;;;6.31;69.76
28312;BME280;15572;48.810;9.148;2023-02-01T12:13:37;98722.63;;;6.39;69.79
28312;BME280;15572;48.810;9.148;2023-02-01T12:18:52;98724.97;;;6.34;70.04
28312;BME280;15572;48.810;9.148;2023-02-01T12:24:08;98729.53;;;6.42;69.26
28312;BME280;15572;48.810;9.148;2023-02-01T12:29:47;98725.56;;;6.46;69.42
28312;BME280;15572;48.810;9.148;2023-02-01T12:34:59;98725.09;;;6.32;70.60
28312;BME280;15572;48.810;9.148;2023-02-01T12:40:06;98737.56;;;6.33;71.79
28312;BME280;15572;48.810;9.148;2023-02-01T12:45:13;98742.84;;;6.25;73.00
28312;BME280;15572;48.810;9.148;2023-02-01T12:50:15;98732.53;;;6.13;74.17
28312;BME280;15572;48.810;9.148;2023-02-01T12:55:22;98740.97;;;6.18;74.77
28312;BME280;15572;48.810;9.148;2023-02-01T13:00:23;98741.44;;;6.13;76.51
28312;BME280;15572;48.810;9.148;2023-02-01T13:05:22;98737.53;;;6.08;80.85
28312;BME280;15572;48.810;9.148;2023-02-01T13:10:30;98718.38;;;5.93;82.22
28312;BME280;15572;48.810;9.148;2023-02-01T13:15:32;98713.72;;;5.95;81.33
28312;BME280;15572;48.810;9.148;2023-02-01T13:20:31;98711.19;;;5.93;80.36
28312;BME280;15572;48.810;9.148;2023-02-01T13:25:34;98697.91;;;5.92;79.71
28312;BME280;15572;48.810;9.148;2023-02-01T13:30:42;98696.22;;;6.09;77.32
28312;BME280;15572;48.810;9.148;2023-02-01T13:36:08;98692.97;;;6.05;77.02
28312;BME280;15572;48.810;9.148;2023-02-01T13:41:23;98696.41;;;6.15;76.34
28312;BME280;15572;48.810;9.148;2023-02-01T13:46:23;98695.34;;;6.08;78.52
28312;BME280;15572;48.810;9.148;2023-02-01T13:51:34;98707.13;;;5.89;83.03
28312;BME280;15572;48.810;9.148;2023-02-01T13:56:41;98686.06;;;5.85;82.33
28312;BME280;15572;48.810;9.148;2023-02-01T14:01:38;98692.19;;;5.77;84.09
28312;BME280;15572;48.810;9.148;2023-02-01T14:06:38;98664.41;;;5.69;85.33
28312;BME280;15572;48.810;9.148;2023-02-01T14:11:41;98663.66;;;5.76;82.72
28312;BME280;15572;48.810;9.148;2023-02-01T14:16:38;98673.09;;;5.80;81.08
28312;BME280;15572;48.810;9.148;2023-02-01T14:21:46;98655.75;;;5.93;79.38
28312;BME280;15572;48.810;9.148;2023-02-01T14:26:46;98672.09;;;5.99;77.95
28312;BME280;15572;48.810;9.148;2023-02-01T14:31:49;98682.38;;;6.04;77.96
28312;BME280;15572;48.810;9.148;2023-02-01T14:36:55;98678.38;;;6.08;77.60
28312;BME280;15572;48.810;9.148;2023-02-01T14:41:58;98691.44;;;6.03;77.54
28312;BME280;15572;48.810;9.148;2023-02-01T14:52:34;98703.13;;;5.93;80.31
28312;BME280;15572;48.810;9.148;2023-02-01T14:57:37;98706.50;;;5.96;80.71
28312;BME280;15572;48.810;9.148;2023-02-01T15:02:36;98697.66;;;5.85;82.60
28312;BME280;15572;48.810;9.148;2023-02-01T15:07:35;98701.88;;;5.88;81.75
28312;BME280;15572;48.810;9.148;2023-02-01T15:12:31;98688.22;;;5.99;79.58
28312;BME280;15572;48.810;9.148;2023-02-01T15:17:30;98695.75;;;5.96;79.88
28312;BME280;15572;48.810;9.148;2023-02-01T15:22:30;98691.28;;;5.86;80.04
28312;BME280;15572;48.810;9.148;2023-02-01T15:27:28;98690.31;;;5.87;79.85
28312;BME280;15572;48.810;9.148;2023-02-01T15:32:29;98716.63;;;6.02;79.04
28312;BME280;15572;48.810;9.148;2023-02-01T15:37:27;98720.47;;;5.99;79.38
28312;BME280;15572;48.810;9.148;2023-02-01T15:42:25;98728.47;;;5.91;79.03
28312;BME280;15572;48.810;9.148;2023-02-01T15:47:25;98710.25;;;6.03;76.88
28312;BME280;15572;48.810;9.148;2023-02-01T15:52:25;98723.25;;;5.89;76.90
28312;BME280;15572;48.810;9.148;2023-02-01T15:57:25;98734.75;;;6.00;76.34
28312;BME280;15572;48.810;9.148;2023-02-01T16:02:27;98737.19;;;6.11;75.25
28312;BME280;15572;48.810;9.148;2023-02-01T16:07:28;98726.44;;;6.11;73.67
28312;BME280;15572;48.810;9.148;2023-02-01T16:12:30;98736.34;;;6.10;73.99
28312;BME280;15572;48.810;9.148;2023-02-01T16:17:26;98743.66;;;6.18;73.58
28312;BME280;15572;48.810;9.148;2023-02-01T16:22:23;98751.47;;;5.93;74.77
28312;BME280;15572;48.810;9.148;2023-02-01T16:27:21;98756.56;;;5.97;73.70
28312;BME280;15572;48.810;9.148;2023-02-01T16:32:20;98736.06;;;6.13;72.52
28312;BME280;15572;48.810;9.148;2023-02-01T16:37:20;98756.47;;;6.06;72.55
28312;BME280;15572;48.810;9.148;2023-02-01T16:42:18;98760.53;;;6.10;72.33
28312;BME280;15572;48.810;9.148;2023-02-01T16:47:17;98761.41;;;6.11;72.60
28312;BME280;15572;48.810;9.148;2023-02-01T16:52:17;98761.09;;;5.96;73.31
28312;BME280;15572;48.810;9.148;2023-02-01T16:57:16;98751.47;;;5.93;73.76
28312;BME280;15572;48.810;9.148;2023-02-01T17:02:14;98763.47;;;6.17;71.95
28312;BME280;15572;48.810;9.148;2023-02-01T17:07:13;98758.94;;;6.00;73.20
28312;BME280;15572;48.810;9.148;2023-02-01T17:12:18;98759.88;;;6.08;71.97
28312;BME280;15572;48.810;9.148;2023-02-01T17:17:17;98762.72;;;6.07;71.95
28312;BME280;15572;48.810;9.148;2023-02-01T17:22:16;98749.41;;;6.05;72.03
28312;BME280;15572;48.810;9.148;2023-02-01T17:27:12;98763.00;;;6.04;72.76
28312;BME280;15572;48.810;9.148;2023-02-01T17:32:13;98759.50;;;6.03;72.66
28312;BME280;15572;48.810;9.148;2023-02-01T17:37:21;98766.84;;;6.19;72.12
28312;BME280;15572;48.810;9.148;2023-02-01T17:42:18;98757.75;;;6.20;72.64
28312;BME280;15572;48.810;9.148;2023-02-01T17:47:14;98760.31;;;6.04;73.34
28312;BME280;15572;48.810;9.148;2023-02-01T17:52:15;98767.63;;;5.93;74.90
28312;BME280;15572;48.810;9.148;2023-02-01T17:57:13;98775.91;;;6.00;74.89
28312;BME280;15572;48.810;9.148;2023-02-01T18:02:17;98758.94;;;6.00;75.33
28312;BME280;15572;48.810;9.148;2023-02-01T18:07:14;98753.50;;;5.91;76.44
28312;BME280;15572;48.810;9.148;2023-02-01T18:12:16;98753.78;;;5.88;76.76
28312;BME280;15572;48.810;9.148;2023-02-01T18:17:13;98761.63;;;6.00;76.47
28312;BME280;15572;48.810;9.148;2023-02-01T18:22:14;98773.09;;;6.02;77.14
28312;BME280;15572;48.810;9.148;2023-02-01T18:27:13;98770.00;;;5.97;77.79
28312;BME280;15572;48.810;9.148;2023-02-01T18:32:10;98778.69;;;5.90;78.52
28312;BME280;15572;48.810;9.148;2023-02-01T18:37:06;98768.94;;;5.89;78.97
28312;BME280;15572;48.810;9.148;2023-02-01T18:42:03;98785.22;;;6.06;77.57
28312;BME280;15572;48.810;9.148;2023-02-01T18:47:00;98780.81;;;6.05;76.32
28312;BME280;15572;48.810;9.148;2023-02-01T18:51:57;98768.38;;;6.04;76.46
28312;BME280;15572;48.810;9.148;2023-02-01T18:56:54;98749.88;;;6.01;76.09
28312;BME280;15572;48.810;9.148;2023-02-01T19:01:50;98748.00;;;5.83;76.55
28312;BME280;15572;48.810;9.148;2023-02-01T19:06:48;98749.03;;;6.18;73.73
28312;BME280;15572;48.810;9.148;2023-02-01T19:11:45;98756.00;;;6.11;74.03
28312;BME280;15572;48.810;9.148;2023-02-01T19:16:41;98743.13;;;5.97;74.93
28312;BME280;15572;48.810;9.148;2023-02-01T19:21:38;98727.09;;;5.87;75.82
28312;BME280;15572;48.810;9.148;2023-02-01T19:26:36;98731.53;;;5.96;74.99
28312;BME280;15572;48.810;9.148;2023-02-01T19:31:32;98715.03;;;5.91;75.58
28312;BME280;15572;48.810;9.148;2023-02-01T19:36:29;98710.41;;;6.01;75.13
28312;BME280;15572;48.810;9.148;2023-02-01T19:41:26;98706.28;;;5.89;76.36
28312;BME280;15572;48.810;9.148;2023-02-01T19:46:23;98723.38;;;6.06;76.28
28312;BME280;15572;48.810;9.148;2023-02-01T19:51:20;98722.69;;;6.04;76.30
28312;BME280;15572;48.810;9.148;2023-02-01T19:56:16;98719.56;;;6.08;76.52
28312;BME280;15572;48.810;9.148;2023-02-01T20:01:13;98740.81;;;6.19;75.24
28312;BME280;15572;48.810;9.148;2023-02-01T20:06:11;98752.25;;;6.04;76.13
28312;BME280;15572;48.810;9.148;2023-02-01T20:11:08;98744.19;;;6.04;76.91
28312;BME280;15572;48.810;9.148;2023-02-01T20:16:05;98775.78;;;6.02;78.00
28312;BME280;15572;48.810;9.148;2023-02-01T20:21:02;98778.13;;;6.05;77.91
28312;BME280;15572;48.810;9.148;2023-02-01T20:26:05;98789.13;;;6.11;78.26
28312;BME280;15572;48.810;9.148;2023-02-01T20:31:02;98774.53;;;6.14;78.41
28312;BME280;15572;48.810;9.148;2023-02-01T20:35:58;98773.75;;;6.04;79.57
28312;BME280;15572;48.810;9.148;2023-02-01T20:41:01;98764.63;;;6.14;79.86
28312;BME280;15572;48.810;9.148;2023-02-01T20:45:59;98776.75;;;6.01;80.96
28312;BME280;15572;48.810;9.148;2023-02-01T20:50:57;98776.84;;;6.09;80.39
28312;BME280;15572;48.810;9.148;2023-02-01T20:55:55;98791.81;;;6.11;80.74
28312;BME280;15572;48.810;9.148;2023-02-01T21:00:52;98783.03;;;6.09;81.00
28312;BME280;15572;48.810;9.148;2023-02-01T21:05:52;98796.50;;;6.27;79.65
28312;BME280;15572;48.810;9.148;2023-02-01T21:10:56;98782.28;;;6.34;79.30
28312;BME280;15572;48.810;9.148;2023-02-01T21:15:53;98775.50;;;6.30;79.40
28312;BME280;15572;48.810;9.148;2023-02-01T21:20:51;98782.38;;;6.25;79.63
28312;BME280;15572;48.810;9.148;2023-02-01T21:25:47;98760.22;;;6.31;77.86
28312;BME280;15572;48.810;9.148;2023-02-01T21:30:44;98771.06;;;6.21;78.14
28312;BME280;15572;48.810;9.148;2023-02-01T21:35:40;98770.00;;;6.14;79.04
28312;BME280;15572;48.810;9.148;2023-02-01T21:40:38;98773.41;;;6.42;76.91
28312;BME280;15572;48.810;9.148;2023-02-01T21:45:35;98769.22;;;6.40;76.78
28312;BME280;15572;48.810;9.148;2023-02-01T21:50:31;98757.84;;;6.28;78.48
28312;BME280;15572;48.810;9.148;2023-02-01T21:55:29;98766.28;;;6.33;78.84
28312;BME280;15572;48.810;9.148;2023-02-01T22:00:27;98774.50;;;6.31;78.68
28312;BME280;15572;48.810;9.148;2023-02-01T22:05:23;98773.41;;;6.42;77.75
28312;BME280;15572;48.810;9.148;2023-02-01T22:10:20;98762.28;;;6.37;78.52
28312;BME280;15572;48.810;9.148;2023-02-01T22:15:17;98765.53;;;6.41;78.06
28312;BME280;15572;48.810;9.148;2023-02-01T22:20:15;98763.94;;;6.30;78.71
28312;BME280;15572;48.810;9.148;2023-02-01T22:25:11;98785.34;;;6.40;79.45
28312;BME280;15572;48.810;9.148;2023-02-01T22:30:09;98790.44;;;6.25;82.88
28312;BME280;15572;48.810;9.148;2023-02-01T22:35:06;98770.41;;;6.02;85.34
28312;BME280;15572;48.810;9.148;2023-02-01T22:40:05;98774.16;;;6.09;86.72
28312;BME280;15572;48.810;9.148;2023-02-01T22:45:02;98756.00;;;5.93;89.22
28312;BME280;15572;48.810;9.148;2023-02-01T22:49:59;98769.31;;;5.95;89.02
28312;BME280;15572;48.810;9.148;2023-02-01T22:54:56;98765.56;;;5.87;89.44
28312;BME280;15572;48.810;9.148;2023-02-01T22:59:54;98766.66;;;5.85;88.69
28312;BME280;15572;48.810;9.148;2023-02-01T23:04:50;98759.72;;;5.92;87.69
28312;BME280;15572;48.810;9.148;2023-02-01T23:09:46;98763.25;;;5.93;87.69
28312;BME280;15572;48.810;9.148;2023-02-01T23:14:43;98764.31;;;5.82;88.61
28312;BME280;15572;48.810;9.148;2023-02-01T23:19:55;98771.84;;;5.96;86.78
28312;BME280;15572;48.810;9.148;2023-02-01T23:24:51;98761.00;;;5.88;86.88
28312;BME280;15572;48.810;9.148;2023-02-01T23:29:48;98759.72;;;5.92;86.76
28312;BME280;15572;48.810;9.148;2023-02-01T23:34:44;98753.47;;;6.09;85.43
28312;BME280;15572;48.810;9.148;2023-02-01T23:39:42;98746.44;;;6.08;85.29
28312;BME280;15572;48.810;9.148;2023-02-01T23:44:38;98749.66;;;6.12;85.32
28312;BME280;15572;48.810;9.148;2023-02-01T23:49:35;98758.28;;;5.98;87.07
28312;BME280;15572;48.810;9.148;2023-02-01T23:54:32;98758.41;;;6.14;86.50
28312;BME280;15572;48.810;9.148;2023-02-01T23:59:29;98750.03;;;5.99;88.36
